sensor_id;sensor_type;location;lat;lon;timestamp;P1;durP1;ratioP1;P2;durP2;ratioP2
77591;SDS011;66891;46.884;17.436;2023-11-21T00:00:12;30.87;;;15.13;;
77591;SDS011;66891;46.884;17.436;2023-11-21T00:02:41;29.58;;;14.73;;
77591;SDS011;66891;46.884;17.436;2023-11-21T00:05:09;30.55;;;15.60;;
77591;SDS011;66891;46.884;17.436;2023-11-21T00:07:36;30.67;;;15.35;;
77591;SDS011;66891;46.884;17.436;2023-11-21T00:10:04;30.65;;;14.50;;
77591;SDS011;66891;46.884;17.436;2023-11-21T00:12:35;39.90;;;16.90;;
77591;SDS011;66891;46.884;17.436;2023-11-21T00:15:02;39.50;;;18.00;;
77591;SDS011;66891;46.884;17.436;2023-11-21T00:17:29;35.83;;;16.95;;
77591;SDS011;66891;46.884;17.436;2023-11-21T00:19:58;32.90;;;14.60;;
77591;SDS011;66891;46.884;17.436;2023-11-21T00:22:25;31.55;;;14.50;;
77591;SDS011;66891;46.884;17.436;2023-11-21T00:24:52;32.40;;;14.93;;
77591;SDS011;66891;46.884;17.436;2023-11-21T00:27:19;30.10;;;14.63;;
77591;SDS011;66891;46.884;17.436;2023-11-21T00:29:47;30.30;;;12.27;;
77591;SDS011;66891;46.884;17.436;2023-11-21T00:32:14;24.42;;;11.65;;
77591;SDS011;66891;46.884;17.436;2023-11-21T00:34:41;24.88;;;12.02;;
77591;SDS011;66891;46.884;17.436;2023-11-21T00:37:10;24.37;;;10.90;;
77591;SDS011;66891;46.884;17.436;2023-11-21T00:39:38;28.73;;;12.13;;
77591;SDS011;66891;46.884;17.436;2023-11-21T00:42:06;28.27;;;12.48;;
77591;SDS011;66891;46.884;17.436;2023-11-21T00:44:33;28.63;;;13.55;;
77591;SDS011;66891;46.884;17.436;2023-11-21T00:47:00;28.45;;;11.95;;
77591;SDS011;66891;46.884;17.436;2023-11-21T00:49:27;26.23;;;12.43;;
77591;SDS011;66891;46.884;17.436;2023-11-21T00:51:54;31.05;;;13.48;;
77591;SDS011;66891;46.884;17.436;2023-11-21T00:54:23;32.92;;;15.20;;
77591;SDS011;66891;46.884;17.436;2023-11-21T00:56:50;37.58;;;16.23;;
77591;SDS011;66891;46.884;17.436;2023-11-21T00:59:17;28.52;;;14.32;;
77591;SDS011;66891;46.884;17.436;2023-11-21T01:01:44;28.47;;;12.93;;
77591;SDS011;66891;46.884;17.436;2023-11-21T01:04:11;28.27;;;12.63;;
77591;SDS011;66891;46.884;17.436;2023-11-21T01:06:38;25.90;;;11.02;;
77591;SDS011;66891;46.884;17.436;2023-11-21T01:09:05;23.42;;;10.80;;
77591;SDS011;66891;46.884;17.436;2023-11-21T01:11:36;23.75;;;11.02;;
77591;SDS011;66891;46.884;17.436;2023-11-21T01:14:04;21.20;;;10.83;;
77591;SDS011;66891;46.884;17.436;2023-11-21T01:16:32;20.92;;;9.80;;
77591;SDS011;66891;46.884;17.436;2023-11-21T01:19:02;21.45;;;10.57;;
77591;SDS011;66891;46.884;17.436;2023-11-21T01:21:29;23.52;;;10.80;;
77591;SDS011;66891;46.884;17.436;2023-11-21T01:23:56;22.42;;;10.55;;
77591;SDS011;66891;46.884;17.436;2023-11-21T01:26:22;22.33;;;10.37;;
77591;SDS011;66891;46.884;17.436;2023-11-21T01:28:52;22.10;;;10.27;;
77591;SDS011;66891;46.884;17.436;2023-11-21T01:31:23;18.17;;;9.65;;
77591;SDS011;66891;46.884;17.436;2023-11-21T01:33:50;19.42;;;9.50;;
77591;SDS011;66891;46.884;17.436;2023-11-21T01:36:17;20.85;;;9.90;;
77591;SDS011;66891;46.884;17.436;2023-11-21T01:38:44;18.27;;;9.17;;
77591;SDS011;66891;46.884;17.436;2023-11-21T01:41:12;18.92;;;9.10;;
77591;SDS011;66891;46.884;17.436;2023-11-21T01:43:40;18.08;;;8.88;;
77591;SDS011;66891;46.884;17.436;2023-11-21T01:46:09;17.90;;;8.55;;
77591;SDS011;66891;46.884;17.436;2023-11-21T01:48:36;20.77;;;9.45;;
77591;SDS011;66891;46.884;17.436;2023-11-21T01:51:05;18.23;;;8.20;;
77591;SDS011;66891;46.884;17.436;2023-11-21T01:53:32;17.63;;;8.60;;
77591;SDS011;66891;46.884;17.436;2023-11-21T01:56:00;18.55;;;7.95;;
77591;SDS011;66891;46.884;17.436;2023-11-21T01:58:27;23.02;;;11.10;;
77591;SDS011;66891;46.884;17.436;2023-11-21T02:00:54;23.17;;;11.32;;
77591;SDS011;66891;46.884;17.436;2023-11-21T02:03:23;23.70;;;11.60;;
77591;SDS011;66891;46.884;17.436;2023-11-21T02:05:50;22.25;;;10.73;;
77591;SDS011;66891;46.884;17.436;2023-11-21T02:08:17;21.77;;;9.88;;
77591;SDS011;66891;46.884;17.436;2023-11-21T02:10:45;25.08;;;10.60;;
77591;SDS011;66891;46.884;17.436;2023-11-21T02:13:14;23.75;;;10.45;;
77591;SDS011;66891;46.884;17.436;2023-11-21T02:15:41;21.03;;;10.00;;
77591;SDS011;66891;46.884;17.436;2023-11-21T02:18:08;22.70;;;10.55;;
77591;SDS011;66891;46.884;17.436;2023-11-21T02:20:39;20.17;;;9.98;;
77591;SDS011;66891;46.884;17.436;2023-11-21T02:23:09;18.77;;;9.95;;
77591;SDS011;66891;46.884;17.436;2023-11-21T02:25:37;20.05;;;10.00;;
77591;SDS011;66891;46.884;17.436;2023-11-21T02:28:04;20.93;;;10.07;;
77591;SDS011;66891;46.884;17.436;2023-11-21T02:30:31;19.10;;;9.70;;
77591;SDS011;66891;46.884;17.436;2023-11-21T02:32:59;22.38;;;11.25;;
77591;SDS011;66891;46.884;17.436;2023-11-21T02:35:26;22.13;;;10.73;;
77591;SDS011;66891;46.884;17.436;2023-11-21T02:37:54;22.75;;;11.25;;
77591;SDS011;66891;46.884;17.436;2023-11-21T02:40:23;20.27;;;9.90;;
77591;SDS011;66891;46.884;17.436;2023-11-21T02:42:51;19.77;;;9.30;;
77591;SDS011;66891;46.884;17.436;2023-11-21T02:45:20;19.85;;;8.32;;
77591;SDS011;66891;46.884;17.436;2023-11-21T02:47:51;19.98;;;9.07;;
77591;SDS011;66891;46.884;17.436;2023-11-21T02:50:20;17.23;;;9.00;;
77591;SDS011;66891;46.884;17.436;2023-11-21T02:52:49;19.97;;;10.03;;
77591;SDS011;66891;46.884;17.436;2023-11-21T02:55:18;21.02;;;9.60;;
77591;SDS011;66891;46.884;17.436;2023-11-21T02:57:46;19.90;;;9.18;;
77591;SDS011;66891;46.884;17.436;2023-11-21T03:00:13;22.13;;;10.68;;
77591;SDS011;66891;46.884;17.436;2023-11-21T03:02:42;19.92;;;9.20;;
77591;SDS011;66891;46.884;17.436;2023-11-21T03:05:09;19.80;;;8.87;;
77591;SDS011;66891;46.884;17.436;2023-11-21T03:07:37;19.58;;;8.75;;
77591;SDS011;66891;46.884;17.436;2023-11-21T03:10:04;18.02;;;8.52;;
77591;SDS011;66891;46.884;17.436;2023-11-21T03:12:31;19.60;;;8.63;;
77591;SDS011;66891;46.884;17.436;2023-11-21T03:15:00;17.85;;;9.10;;
77591;SDS011;66891;46.884;17.436;2023-11-21T03:17:28;17.50;;;8.37;;
77591;SDS011;66891;46.884;17.436;2023-11-21T03:19:55;19.38;;;8.55;;
77591;SDS011;66891;46.884;17.436;2023-11-21T03:22:24;17.33;;;8.88;;
77591;SDS011;66891;46.884;17.436;2023-11-21T03:24:51;18.70;;;9.30;;
77591;SDS011;66891;46.884;17.436;2023-11-21T03:27:18;19.27;;;9.35;;
77591;SDS011;66891;46.884;17.436;2023-11-21T03:29:45;18.08;;;8.63;;
77591;SDS011;66891;46.884;17.436;2023-11-21T03:32:14;18.48;;;8.50;;
77591;SDS011;66891;46.884;17.436;2023-11-21T03:34:52;19.45;;;9.20;;
77591;SDS011;66891;46.884;17.436;2023-11-21T03:37:20;19.92;;;8.75;;
77591;SDS011;66891;46.884;17.436;2023-11-21T03:39:47;18.52;;;9.05;;
77591;SDS011;66891;46.884;17.436;2023-11-21T03:42:14;20.77;;;9.77;;
77591;SDS011;66891;46.884;17.436;2023-11-21T03:44:41;20.55;;;9.50;;
77591;SDS011;66891;46.884;17.436;2023-11-21T03:47:08;20.10;;;9.00;;
77591;SDS011;66891;46.884;17.436;2023-11-21T03:49:36;18.42;;;8.93;;
77591;SDS011;66891;46.884;17.436;2023-11-21T03:52:04;17.70;;;9.57;;
77591;SDS011;66891;46.884;17.436;2023-11-21T03:54:31;18.80;;;9.17;;
77591;SDS011;66891;46.884;17.436;2023-11-21T03:56:58;20.08;;;9.52;;
77591;SDS011;66891;46.884;17.436;2023-11-21T03:59:25;19.50;;;9.48;;
77591;SDS011;66891;46.884;17.436;2023-11-21T04:01:54;18.58;;;9.07;;
77591;SDS011;66891;46.884;17.436;2023-11-21T04:04:21;18.73;;;9.55;;
77591;SDS011;66891;46.884;17.436;2023-11-21T04:06:50;20.43;;;8.93;;
77591;SDS011;66891;46.884;17.436;2023-11-21T04:09:18;21.88;;;10.30;;
77591;SDS011;66891;46.884;17.436;2023-11-21T04:11:45;18.45;;;9.85;;
77591;SDS011;66891;46.884;17.436;2023-11-21T04:14:12;18.20;;;9.88;;
77591;SDS011;66891;46.884;17.436;2023-11-21T04:16:40;17.58;;;9.20;;
77591;SDS011;66891;46.884;17.436;2023-11-21T04:19:07;19.13;;;9.30;;
77591;SDS011;66891;46.884;17.436;2023-11-21T04:21:36;19.33;;;9.68;;
77591;SDS011;66891;46.884;17.436;2023-11-21T04:24:05;19.83;;;9.38;;
77591;SDS011;66891;46.884;17.436;2023-11-21T04:26:32;18.77;;;10.30;;
77591;SDS011;66891;46.884;17.436;2023-11-21T04:29:00;18.30;;;9.45;;
77591;SDS011;66891;46.884;17.436;2023-11-21T04:31:27;18.03;;;9.30;;
77591;SDS011;66891;46.884;17.436;2023-11-21T04:33:54;20.20;;;9.27;;
77591;SDS011;66891;46.884;17.436;2023-11-21T04:36:21;18.85;;;10.05;;
77591;SDS011;66891;46.884;17.436;2023-11-21T04:38:48;29.85;;;16.17;;
77591;SDS011;66891;46.884;17.436;2023-11-21T04:41:16;27.92;;;13.35;;
77591;SDS011;66891;46.884;17.436;2023-11-21T04:43:44;22.07;;;11.73;;
77591;SDS011;66891;46.884;17.436;2023-11-21T04:46:11;19.98;;;9.40;;
77591;SDS011;66891;46.884;17.436;2023-11-21T04:48:38;18.25;;;8.75;;
77591;SDS011;66891;46.884;17.436;2023-11-21T04:51:05;17.58;;;8.50;;
77591;SDS011;66891;46.884;17.436;2023-11-21T04:53:33;17.98;;;8.77;;
77591;SDS011;66891;46.884;17.436;2023-11-21T04:56:01;19.83;;;9.47;;
77591;SDS011;66891;46.884;17.436;2023-11-21T04:58:31;17.70;;;9.18;;
77591;SDS011;66891;46.884;17.436;2023-11-21T05:00:59;17.90;;;9.18;;
77591;SDS011;66891;46.884;17.436;2023-11-21T05:03:27;20.60;;;9.43;;
77591;SDS011;66891;46.884;17.436;2023-11-21T05:05:56;19.15;;;9.52;;
77591;SDS011;66891;46.884;17.436;2023-11-21T05:08:23;19.93;;;9.30;;
77591;SDS011;66891;46.884;17.436;2023-11-21T05:10:50;23.92;;;12.02;;
77591;SDS011;66891;46.884;17.436;2023-11-21T05:13:18;20.77;;;10.60;;
77591;SDS011;66891;46.884;17.436;2023-11-21T05:15:48;21.77;;;11.07;;
77591;SDS011;66891;46.884;17.436;2023-11-21T05:18:16;20.88;;;10.93;;
77591;SDS011;66891;46.884;17.436;2023-11-21T05:20:43;21.47;;;10.87;;
77591;SDS011;66891;46.884;17.436;2023-11-21T05:23:10;21.42;;;11.20;;
77591;SDS011;66891;46.884;17.436;2023-11-21T05:25:37;21.83;;;10.82;;
77591;SDS011;66891;46.884;17.436;2023-11-21T05:28:06;31.52;;;15.32;;
77591;SDS011;66891;46.884;17.436;2023-11-21T05:30:33;25.85;;;12.52;;
77591;SDS011;66891;46.884;17.436;2023-11-21T05:33:02;24.27;;;11.77;;
77591;SDS011;66891;46.884;17.436;2023-11-21T05:35:30;20.17;;;10.75;;
77591;SDS011;66891;46.884;17.436;2023-11-21T05:37:57;21.88;;;10.93;;
77591;SDS011;66891;46.884;17.436;2023-11-21T05:40:24;24.42;;;11.13;;
77591;SDS011;66891;46.884;17.436;2023-11-21T05:42:53;21.17;;;10.32;;
77591;SDS011;66891;46.884;17.436;2023-11-21T05:45:20;23.25;;;11.32;;
77591;SDS011;66891;46.884;17.436;2023-11-21T05:47:47;21.65;;;10.90;;
77591;SDS011;66891;46.884;17.436;2023-11-21T05:50:16;21.45;;;10.73;;
77591;SDS011;66891;46.884;17.436;2023-11-21T05:52:43;24.73;;;12.48;;
77591;SDS011;66891;46.884;17.436;2023-11-21T05:55:11;30.00;;;14.10;;
77591;SDS011;66891;46.884;17.436;2023-11-21T05:57:39;24.73;;;12.30;;
77591;SDS011;66891;46.884;17.436;2023-11-21T06:00:06;21.55;;;10.80;;
77591;SDS011;66891;46.884;17.436;2023-11-21T06:02:38;31.40;;;20.02;;
77591;SDS011;66891;46.884;17.436;2023-11-21T06:05:05;27.55;;;15.07;;
77591;SDS011;66891;46.884;17.436;2023-11-21T06:07:34;31.80;;;17.58;;
77591;SDS011;66891;46.884;17.436;2023-11-21T06:10:02;29.33;;;15.27;;
77591;SDS011;66891;46.884;17.436;2023-11-21T06:12:33;20.05;;;9.70;;
77591;SDS011;66891;46.884;17.436;2023-11-21T06:15:03;21.00;;;10.88;;
77591;SDS011;66891;46.884;17.436;2023-11-21T06:17:31;24.00;;;10.80;;
77591;SDS011;66891;46.884;17.436;2023-11-21T06:19:59;21.70;;;11.23;;
77591;SDS011;66891;46.884;17.436;2023-11-21T06:22:29;19.75;;;10.07;;
77591;SDS011;66891;46.884;17.436;2023-11-21T06:24:59;23.35;;;11.82;;
77591;SDS011;66891;46.884;17.436;2023-11-21T06:27:26;18.45;;;9.52;;
77591;SDS011;66891;46.884;17.436;2023-11-21T06:29:53;18.65;;;9.90;;
77591;SDS011;66891;46.884;17.436;2023-11-21T06:32:20;29.55;;;15.68;;
77591;SDS011;66891;46.884;17.436;2023-11-21T06:34:49;34.13;;;17.00;;
77591;SDS011;66891;46.884;17.436;2023-11-21T06:37:16;34.88;;;18.38;;
77591;SDS011;66891;46.884;17.436;2023-11-21T06:39:43;40.30;;;19.88;;
77591;SDS011;66891;46.884;17.436;2023-11-21T06:42:11;43.95;;;21.98;;
77591;SDS011;66891;46.884;17.436;2023-11-21T06:44:39;48.22;;;20.60;;
77591;SDS011;66891;46.884;17.436;2023-11-21T06:47:08;273.60;;;76.80;;
77591;SDS011;66891;46.884;17.436;2023-11-21T06:49:35;122.28;;;38.47;;
77591;SDS011;66891;46.884;17.436;2023-11-21T06:52:08;60.58;;;24.73;;
77591;SDS011;66891;46.884;17.436;2023-11-21T06:54:42;56.13;;;23.60;;
77591;SDS011;66891;46.884;17.436;2023-11-21T06:57:11;43.13;;;21.35;;
77591;SDS011;66891;46.884;17.436;2023-11-21T06:59:38;42.17;;;21.93;;
77591;SDS011;66891;46.884;17.436;2023-11-21T07:02:09;45.00;;;22.23;;
77591;SDS011;66891;46.884;17.436;2023-11-21T07:04:45;46.75;;;24.50;;
77591;SDS011;66891;46.884;17.436;2023-11-21T07:07:14;132.32;;;55.05;;
77591;SDS011;66891;46.884;17.436;2023-11-21T07:09:41;61.17;;;32.10;;
77591;SDS011;66891;46.884;17.436;2023-11-21T07:12:09;56.13;;;28.63;;
77591;SDS011;66891;46.884;17.436;2023-11-21T07:14:39;48.17;;;24.25;;
77591;SDS011;66891;46.884;17.436;2023-11-21T07:17:07;66.55;;;32.38;;
77591;SDS011;66891;46.884;17.436;2023-11-21T07:19:34;89.43;;;42.92;;
77591;SDS011;66891;46.884;17.436;2023-11-21T07:22:02;64.22;;;32.38;;
77591;SDS011;66891;46.884;17.436;2023-11-21T07:24:30;56.85;;;27.67;;
77591;SDS011;66891;46.884;17.436;2023-11-21T07:26:58;76.60;;;35.60;;
77591;SDS011;66891;46.884;17.436;2023-11-21T07:29:25;81.03;;;37.65;;
77591;SDS011;66891;46.884;17.436;2023-11-21T07:31:54;80.60;;;38.67;;
77591;SDS011;66891;46.884;17.436;2023-11-21T07:34:22;69.93;;;34.83;;
77591;SDS011;66891;46.884;17.436;2023-11-21T07:36:49;38.95;;;20.20;;
77591;SDS011;66891;46.884;17.436;2023-11-21T07:39:16;33.42;;;18.05;;
77591;SDS011;66891;46.884;17.436;2023-11-21T07:41:43;148.63;;;61.30;;
77591;SDS011;66891;46.884;17.436;2023-11-21T07:44:16;71.85;;;31.77;;
77591;SDS011;66891;46.884;17.436;2023-11-21T07:46:43;45.20;;;22.63;;
77591;SDS011;66891;46.884;17.436;2023-11-21T07:49:12;56.33;;;27.63;;
77591;SDS011;66891;46.884;17.436;2023-11-21T07:51:48;54.15;;;27.70;;
77591;SDS011;66891;46.884;17.436;2023-11-21T07:54:15;85.85;;;40.00;;
77591;SDS011;66891;46.884;17.436;2023-11-21T07:56:42;52.40;;;25.63;;
77591;SDS011;66891;46.884;17.436;2023-11-21T07:59:10;44.72;;;22.42;;
77591;SDS011;66891;46.884;17.436;2023-11-21T08:01:37;32.70;;;17.37;;
77591;SDS011;66891;46.884;17.436;2023-11-21T08:04:04;28.60;;;14.55;;
77591;SDS011;66891;46.884;17.436;2023-11-21T08:06:35;31.67;;;16.05;;
77591;SDS011;66891;46.884;17.436;2023-11-21T08:09:02;39.65;;;20.80;;
77591;SDS011;66891;46.884;17.436;2023-11-21T08:11:29;59.15;;;30.85;;
77591;SDS011;66891;46.884;17.436;2023-11-21T08:13:58;47.03;;;23.97;;
77591;SDS011;66891;46.884;17.436;2023-11-21T08:16:27;64.78;;;29.42;;
77591;SDS011;66891;46.884;17.436;2023-11-21T08:18:54;60.85;;;27.50;;
77591;SDS011;66891;46.884;17.436;2023-11-21T08:21:21;50.80;;;23.48;;
77591;SDS011;66891;46.884;17.436;2023-11-21T08:23:59;42.22;;;19.63;;
77591;SDS011;66891;46.884;17.436;2023-11-21T08:26:27;41.05;;;19.83;;
77591;SDS011;66891;46.884;17.436;2023-11-21T08:28:54;57.67;;;28.92;;
77591;SDS011;66891;46.884;17.436;2023-11-21T08:31:23;26.15;;;13.30;;
77591;SDS011;66891;46.884;17.436;2023-11-21T08:33:51;22.17;;;11.75;;
77591;SDS011;66891;46.884;17.436;2023-11-21T08:36:18;48.63;;;25.85;;
77591;SDS011;66891;46.884;17.436;2023-11-21T08:38:45;37.27;;;19.33;;
77591;SDS011;66891;46.884;17.436;2023-11-21T08:41:13;30.20;;;16.15;;
77591;SDS011;66891;46.884;17.436;2023-11-21T08:43:41;25.17;;;12.65;;
77591;SDS011;66891;46.884;17.436;2023-11-21T08:46:11;32.33;;;17.35;;
77591;SDS011;66891;46.884;17.436;2023-11-21T08:48:40;50.05;;;28.05;;
77591;SDS011;66891;46.884;17.436;2023-11-21T08:51:09;67.90;;;35.17;;
77591;SDS011;66891;46.884;17.436;2023-11-21T08:53:36;56.35;;;29.15;;
77591;SDS011;66891;46.884;17.436;2023-11-21T08:56:05;65.82;;;32.60;;
77591;SDS011;66891;46.884;17.436;2023-11-21T08:58:34;56.70;;;28.90;;
77591;SDS011;66891;46.884;17.436;2023-11-21T09:01:04;32.70;;;18.30;;
77591;SDS011;66891;46.884;17.436;2023-11-21T09:03:31;43.53;;;21.67;;
77591;SDS011;66891;46.884;17.436;2023-11-21T09:06:00;43.47;;;22.40;;
77591;SDS011;66891;46.884;17.436;2023-11-21T09:08:27;39.33;;;19.58;;
77591;SDS011;66891;46.884;17.436;2023-11-21T09:11:02;27.20;;;14.57;;
77591;SDS011;66891;46.884;17.436;2023-11-21T09:13:29;28.70;;;15.48;;
77591;SDS011;66891;46.884;17.436;2023-11-21T09:15:58;39.13;;;20.40;;
77591;SDS011;66891;46.884;17.436;2023-11-21T09:18:25;30.00;;;15.60;;
77591;SDS011;66891;46.884;17.436;2023-11-21T09:20:52;26.92;;;11.98;;
77591;SDS011;66891;46.884;17.436;2023-11-21T09:23:19;18.20;;;9.13;;
77591;SDS011;66891;46.884;17.436;2023-11-21T09:25:46;18.17;;;8.77;;
77591;SDS011;66891;46.884;17.436;2023-11-21T09:28:16;31.50;;;18.30;;
77591;SDS011;66891;46.884;17.436;2023-11-21T09:30:46;20.35;;;10.13;;
77591;SDS011;66891;46.884;17.436;2023-11-21T09:33:17;16.75;;;8.93;;
77591;SDS011;66891;46.884;17.436;2023-11-21T09:35:44;20.10;;;10.15;;
77591;SDS011;66891;46.884;17.436;2023-11-21T09:38:13;23.02;;;13.30;;
77591;SDS011;66891;46.884;17.436;2023-11-21T09:40:41;17.97;;;10.10;;
77591;SDS011;66891;46.884;17.436;2023-11-21T09:43:12;17.90;;;8.40;;
77591;SDS011;66891;46.884;17.436;2023-11-21T09:45:44;17.27;;;8.20;;
77591;SDS011;66891;46.884;17.436;2023-11-21T09:48:11;20.50;;;11.55;;
77591;SDS011;66891;46.884;17.436;2023-11-21T09:50:41;24.38;;;13.98;;
77591;SDS011;66891;46.884;17.436;2023-11-21T09:53:10;18.33;;;10.07;;
77591;SDS011;66891;46.884;17.436;2023-11-21T09:55:42;20.45;;;10.32;;
77591;SDS011;66891;46.884;17.436;2023-11-21T09:58:10;19.40;;;10.23;;
77591;SDS011;66891;46.884;17.436;2023-11-21T10:00:41;22.27;;;11.23;;
77591;SDS011;66891;46.884;17.436;2023-11-21T10:03:09;20.50;;;10.55;;
77591;SDS011;66891;46.884;17.436;2023-11-21T10:05:40;18.77;;;9.70;;
77591;SDS011;66891;46.884;17.436;2023-11-21T10:08:09;15.32;;;8.35;;
77591;SDS011;66891;46.884;17.436;2023-11-21T10:10:36;17.33;;;8.00;;
77591;SDS011;66891;46.884;17.436;2023-11-21T10:13:06;21.30;;;9.02;;
77591;SDS011;66891;46.884;17.436;2023-11-21T10:15:41;17.35;;;7.22;;
77591;SDS011;66891;46.884;17.436;2023-11-21T10:18:11;15.67;;;7.53;;
77591;SDS011;66891;46.884;17.436;2023-11-21T10:20:38;15.65;;;7.00;;
77591;SDS011;66891;46.884;17.436;2023-11-21T10:23:05;14.75;;;7.15;;
77591;SDS011;66891;46.884;17.436;2023-11-21T10:25:37;15.63;;;6.97;;
77591;SDS011;66891;46.884;17.436;2023-11-21T10:28:05;17.15;;;8.25;;
77591;SDS011;66891;46.884;17.436;2023-11-21T10:30:34;17.87;;;8.87;;
77591;SDS011;66891;46.884;17.436;2023-11-21T10:33:04;16.80;;;9.07;;
77591;SDS011;66891;46.884;17.436;2023-11-21T10:35:44;16.48;;;7.78;;
77591;SDS011;66891;46.884;17.436;2023-11-21T10:38:18;16.67;;;7.68;;
77591;SDS011;66891;46.884;17.436;2023-11-21T10:40:49;17.98;;;9.23;;
77591;SDS011;66891;46.884;17.436;2023-11-21T10:43:16;20.30;;;9.90;;
77591;SDS011;66891;46.884;17.436;2023-11-21T10:45:44;19.00;;;8.70;;
77591;SDS011;66891;46.884;17.436;2023-11-21T10:48:12;22.10;;;10.05;;
77591;SDS011;66891;46.884;17.436;2023-11-21T10:50:43;19.63;;;9.85;;
77591;SDS011;66891;46.884;17.436;2023-11-21T10:53:11;17.23;;;8.73;;
77591;SDS011;66891;46.884;17.436;2023-11-21T10:55:42;19.13;;;8.77;;
77591;SDS011;66891;46.884;17.436;2023-11-21T10:58:14;17.35;;;8.70;;
77591;SDS011;66891;46.884;17.436;2023-11-21T11:00:43;21.08;;;9.13;;
77591;SDS011;66891;46.884;17.436;2023-11-21T11:03:12;18.98;;;8.60;;
77591;SDS011;66891;46.884;17.436;2023-11-21T11:05:43;18.25;;;8.80;;
77591;SDS011;66891;46.884;17.436;2023-11-21T11:08:21;15.00;;;7.07;;
77591;SDS011;66891;46.884;17.436;2023-11-21T11:10:54;17.08;;;7.70;;
77591;SDS011;66891;46.884;17.436;2023-11-21T11:13:23;17.15;;;7.43;;
77591;SDS011;66891;46.884;17.436;2023-11-21T11:15:56;18.50;;;8.43;;
77591;SDS011;66891;46.884;17.436;2023-11-21T11:18:26;16.60;;;7.72;;
77591;SDS011;66891;46.884;17.436;2023-11-21T11:20:53;18.00;;;7.83;;
77591;SDS011;66891;46.884;17.436;2023-11-21T11:23:27;15.65;;;7.18;;
77591;SDS011;66891;46.884;17.436;2023-11-21T11:26:07;13.82;;;5.40;;
77591;SDS011;66891;46.884;17.436;2023-11-21T11:28:38;12.77;;;4.57;;
77591;SDS011;66891;46.884;17.436;2023-11-21T11:31:13;12.05;;;4.47;;
77591;SDS011;66891;46.884;17.436;2023-11-21T11:33:47;12.07;;;5.13;;
77591;SDS011;66891;46.884;17.436;2023-11-21T11:36:16;9.20;;;3.38;;
77591;SDS011;66891;46.884;17.436;2023-11-21T11:38:45;10.25;;;3.35;;
77591;SDS011;66891;46.884;17.436;2023-11-21T11:41:12;11.98;;;4.40;;
77591;SDS011;66891;46.884;17.436;2023-11-21T11:43:41;11.93;;;5.10;;
77591;SDS011;66891;46.884;17.436;2023-11-21T11:46:11;21.67;;;9.43;;
77591;SDS011;66891;46.884;17.436;2023-11-21T11:48:42;13.40;;;5.32;;
77591;SDS011;66891;46.884;17.436;2023-11-21T11:51:12;31.23;;;14.32;;
77591;SDS011;66891;46.884;17.436;2023-11-21T11:53:48;15.02;;;6.38;;
77591;SDS011;66891;46.884;17.436;2023-11-21T11:56:21;30.92;;;10.93;;
77591;SDS011;66891;46.884;17.436;2023-11-21T11:58:51;10.43;;;3.50;;
77591;SDS011;66891;46.884;17.436;2023-11-21T12:01:18;9.38;;;3.20;;
77591;SDS011;66891;46.884;17.436;2023-11-21T12:03:49;12.02;;;3.60;;
77591;SDS011;66891;46.884;17.436;2023-11-21T12:06:36;11.02;;;3.33;;
77591;SDS011;66891;46.884;17.436;2023-11-21T12:09:03;11.35;;;3.42;;
77591;SDS011;66891;46.884;17.436;2023-11-21T12:11:34;11.03;;;4.40;;
77591;SDS011;66891;46.884;17.436;2023-11-21T12:14:04;20.50;;;7.60;;
77591;SDS011;66891;46.884;17.436;2023-11-21T12:16:36;16.92;;;6.05;;
77591;SDS011;66891;46.884;17.436;2023-11-21T12:19:06;10.95;;;4.43;;
77591;SDS011;66891;46.884;17.436;2023-11-21T12:21:33;11.25;;;4.13;;
77591;SDS011;66891;46.884;17.436;2023-11-21T12:24:01;18.57;;;7.13;;
77591;SDS011;66891;46.884;17.436;2023-11-21T12:26:28;11.57;;;4.90;;
77591;SDS011;66891;46.884;17.436;2023-11-21T12:28:55;40.50;;;14.07;;
77591;SDS011;66891;46.884;17.436;2023-11-21T12:31:24;20.73;;;8.55;;
77591;SDS011;66891;46.884;17.436;2023-11-21T12:33:53;12.13;;;4.13;;
77591;SDS011;66891;46.884;17.436;2023-11-21T12:36:21;8.97;;;3.20;;
77591;SDS011;66891;46.884;17.436;2023-11-21T12:38:48;8.98;;;2.53;;
77591;SDS011;66891;46.884;17.436;2023-11-21T12:41:15;11.15;;;3.72;;
77591;SDS011;66891;46.884;17.436;2023-11-21T12:43:43;12.00;;;4.05;;
77591;SDS011;66891;46.884;17.436;2023-11-21T12:46:11;16.75;;;5.18;;
77591;SDS011;66891;46.884;17.436;2023-11-21T12:48:42;9.30;;;3.30;;
77591;SDS011;66891;46.884;17.436;2023-11-21T12:51:10;13.45;;;4.22;;
77591;SDS011;66891;46.884;17.436;2023-11-21T12:53:38;12.02;;;3.83;;
77591;SDS011;66891;46.884;17.436;2023-11-21T12:56:06;13.52;;;4.88;;
77591;SDS011;66891;46.884;17.436;2023-11-21T12:58:36;13.05;;;3.80;;
77591;SDS011;66891;46.884;17.436;2023-11-21T13:01:04;18.73;;;5.87;;
77591;SDS011;66891;46.884;17.436;2023-11-21T13:03:32;14.98;;;4.13;;
77591;SDS011;66891;46.884;17.436;2023-11-21T13:06:01;14.63;;;4.97;;
77591;SDS011;66891;46.884;17.436;2023-11-21T13:08:29;13.05;;;4.45;;
77591;SDS011;66891;46.884;17.436;2023-11-21T13:10:57;14.93;;;5.05;;
77591;SDS011;66891;46.884;17.436;2023-11-21T13:13:25;14.27;;;6.40;;
77591;SDS011;66891;46.884;17.436;2023-11-21T13:15:56;15.68;;;7.57;;
77591;SDS011;66891;46.884;17.436;2023-11-21T13:18:24;15.65;;;5.20;;
77591;SDS011;66891;46.884;17.436;2023-11-21T13:20:53;13.30;;;4.90;;
77591;SDS011;66891;46.884;17.436;2023-11-21T13:23:23;13.63;;;4.18;;
77591;SDS011;66891;46.884;17.436;2023-11-21T13:25:50;17.63;;;5.75;;
77591;SDS011;66891;46.884;17.436;2023-11-21T13:28:28;23.48;;;7.75;;
77591;SDS011;66891;46.884;17.436;2023-11-21T13:30:59;24.60;;;6.13;;
77591;SDS011;66891;46.884;17.436;2023-11-21T13:33:44;35.13;;;9.73;;
77591;SDS011;66891;46.884;17.436;2023-11-21T13:36:17;22.13;;;6.28;;
77591;SDS011;66891;46.884;17.436;2023-11-21T13:38:50;27.17;;;8.13;;
77591;SDS011;66891;46.884;17.436;2023-11-21T13:41:19;14.80;;;4.63;;
77591;SDS011;66891;46.884;17.436;2023-11-21T13:43:46;19.15;;;6.45;;
77591;SDS011;66891;46.884;17.436;2023-11-21T13:46:24;21.33;;;6.85;;
77591;SDS011;66891;46.884;17.436;2023-11-21T13:48:51;45.45;;;11.48;;
77591;SDS011;66891;46.884;17.436;2023-11-21T13:51:23;26.53;;;7.67;;
77591;SDS011;66891;46.884;17.436;2023-11-21T13:54:04;31.17;;;7.97;;
77591;SDS011;66891;46.884;17.436;2023-11-21T13:56:36;20.35;;;6.03;;
77591;SDS011;66891;46.884;17.436;2023-11-21T13:59:04;33.78;;;9.98;;
77591;SDS011;66891;46.884;17.436;2023-11-21T14:01:43;41.42;;;12.43;;
77591;SDS011;66891;46.884;17.436;2023-11-21T14:04:24;24.73;;;9.37;;
77591;SDS011;66891;46.884;17.436;2023-11-21T14:06:57;17.00;;;5.95;;
77591;SDS011;66891;46.884;17.436;2023-11-21T14:09:29;26.30;;;9.07;;
77591;SDS011;66891;46.884;17.436;2023-11-21T14:12:11;21.48;;;7.85;;
77591;SDS011;66891;46.884;17.436;2023-11-21T14:14:40;20.27;;;7.70;;
77591;SDS011;66891;46.884;17.436;2023-11-21T14:17:10;16.10;;;5.93;;
77591;SDS011;66891;46.884;17.436;2023-11-21T14:19:43;28.80;;;11.27;;
77591;SDS011;66891;46.884;17.436;2023-11-21T14:22:11;23.45;;;8.18;;
77591;SDS011;66891;46.884;17.436;2023-11-21T14:24:40;25.75;;;11.13;;